Time;durP1;ratioP1;P1;durP2;ratioP2;P2;SDS_P1;SDS_P2;PMS_P1;PMS_P2;Temp;Humidity;BMP_temperature;BMP_pressure;BME280_temperature;BME280_humidity;BME280_pressure;Samples;Min_cycle;Max_cycle;Signal;HPM_P1;HPM_P2
2023/09/18 00:00:15;;;;;;;;;;;20.70;62.00;;;;;;5029412;28;87284;-49
2023/09/18 00:02:41;;;;;;;;;;;20.60;61.90;;;;;;5034450;28;88548;-52
2023/09/18 00:05:06;;;;;;;;;;;20.60;61.90;;;;;;5032026;28;89226;-47
2023/09/18 00:07:32;;;;;;;;;;;20.60;61.80;;;;;;5030746;28;89256;-50
2023/09/18 00:09:57;;;;;;;;;;;20.60;61.80;;;;;;5033738;28;87203;-53
2023/09/18 00:12:23;;;;;;;;;;;20.60;61.90;;;;;;5029097;28;87624;-46
2023/09/18 00:14:49;;;;;;;;;;;20.60;62.10;;;;;;5030655;28;89897;-53
2023/09/18 00:17:15;;;;;;;;;;;20.50;61.90;;;;;;5031782;28;88169;-50
2023/09/18 00:19:40;;;;;;;;;;;20.60;61.90;;;;;;5032671;28;87018;-53
2023/09/18 00:22:06;;;;;;;;;;;20.60;61.80;;;;;;5032865;28;87420;-57
2023/09/18 00:24:31;;;;;;;;;;;20.60;61.80;;;;;;5034284;28;87123;-49
2023/09/18 00:26:57;;;;;;;;;;;20.50;61.70;;;;;;5031640;28;90159;-52
2023/09/18 00:29:23;;;;;;;;;;;20.50;61.70;;;;;;5027097;28;89026;-53
2023/09/18 00:31:48;;;;;;;;;;;20.50;61.80;;;;;;5033735;28;88711;-51
2023/09/18 00:34:14;;;;;;;;;;;20.50;61.80;;;;;;5030636;28;88940;-51
2023/09/18 00:36:39;;;;;;;;;;;20.50;61.80;;;;;;5032429;28;88822;-55
2023/09/18 00:39:05;;;;;;;;;;;20.50;61.80;;;;;;5032736;27;89272;-49
2023/09/18 00:41:30;;;;;;;;;;;20.50;61.80;;;;;;5035765;28;88650;-48
2023/09/18 00:43:56;;;;;;;;;;;20.50;61.80;;;;;;5035946;28;87175;-53
2023/09/18 00:46:22;;;;;;;;;;;20.50;61.20;;;;;;5039555;28;88020;-49
2023/09/18 00:48:48;;;;;;;;;;;20.50;61.70;;;;;;5033987;28;87122;-56
2023/09/18 00:51:14;;;;;;;;;;;20.50;61.60;;;;;;5036617;28;87430;-48
2023/09/18 00:53:42;;;;;;;;;;;20.50;61.70;;;;;;5033978;28;89301;-52
2023/09/18 00:56:08;;;;;;;;;;;20.40;61.70;;;;;;5034540;28;88421;-55
2023/09/18 00:58:33;;;;;;;;;;;20.40;61.70;;;;;;5032482;28;87710;-51
2023/09/18 01:00:59;;;;;;;;;;;20.40;61.70;;;;;;5035416;28;88550;-51
2023/09/18 01:03:25;;;;;;;;;;;20.40;61.70;;;;;;5037206;28;87081;-54
2023/09/18 01:05:50;;;;;;;;;;;20.40;61.70;;;;;;5036351;28;88805;-53
2023/09/18 01:08:16;;;;;;;;;;;20.40;61.70;;;;;;5036215;28;87139;-49
2023/09/18 01:10:53;;;;;;;;;;;20.30;61.70;;;;;;5035131;28;87533;-56
2023/09/18 01:13:23;;;;;;;;;;;20.30;61.70;;;;;;5032339;28;88197;-48
2023/09/18 01:15:52;;;;;;;;;;;20.30;61.70;;;;;;5035567;28;88079;-47
2023/09/18 01:18:18;;;;;;;;;;;20.30;61.60;;;;;;5034374;28;88132;-55
2023/09/18 01:20:44;;;;;;;;;;;20.30;61.60;;;;;;5034171;28;88234;-51
2023/09/18 01:23:11;;;;;;;;;;;20.30;61.60;;;;;;5036228;28;87077;-49
2023/09/18 01:25:37;;;;;;;;;;;20.30;61.70;;;;;;5033092;28;89130;-53
2023/09/18 01:28:02;;;;;;;;;;;20.30;61.60;;;;;;5034715;28;88197;-50
2023/09/18 01:30:28;;;;;;;;;;;20.30;61.60;;;;;;5034835;27;89351;-52
2023/09/18 01:32:54;;;;;;;;;;;20.30;61.60;;;;;;5034978;28;88270;-51
2023/09/18 01:35:20;;;;;;;;;;;20.30;61.60;;;;;;5035721;28;87417;-47
2023/09/18 01:37:46;;;;;;;;;;;20.20;61.60;;;;;;5033594;28;88168;-53
2023/09/18 01:40:11;;;;;;;;;;;20.20;61.70;;;;;;5035731;28;87971;-54
2023/09/18 01:42:37;;;;;;;;;;;20.20;61.60;;;;;;5029629;28;88502;-53
2023/09/18 01:45:05;;;;;;;;;;;20.20;61.60;;;;;;5033762;28;90142;-55
2023/09/18 01:47:30;;;;;;;;;;;20.20;61.70;;;;;;5031995;28;89567;-55
2023/09/18 01:49:56;;;;;;;;;;;20.10;61.60;;;;;;5036956;28;87384;-52
2023/09/18 01:52:21;;;;;;;;;;;20.20;61.70;;;;;;5033007;28;87257;-50
2023/09/18 01:54:47;;;;;;;;;;;20.10;61.60;;;;;;5035590;28;87067;-49
2023/09/18 01:57:13;;;;;;;;;;;20.10;61.60;;;;;;5034817;28;87552;-54
2023/09/18 01:59:38;;;;;;;;;;;20.10;62.20;;;;;;5032319;28;88856;-53
2023/09/18 02:02:06;;;;;;;;;;;20.10;61.60;;;;;;5031837;28;87116;-46
2023/09/18 02:04:32;;;;;;;;;;;20.10;61.50;;;;;;5034528;28;87730;-52
2023/09/18 02:06:57;;;;;;;;;;;20.10;61.50;;;;;;5033517;28;89258;-54
2023/09/18 02:09:23;;;;;;;;;;;20.10;61.60;;;;;;5033796;28;87249;-56
2023/09/18 02:11:49;;;;;;;;;;;20.00;61.60;;;;;;5036463;28;90493;-53
2023/09/18 02:14:15;;;;;;;;;;;20.00;61.40;;;;;;5029721;28;87165;-50
2023/09/18 02:16:41;;;;;;;;;;;20.00;61.60;;;;;;5034874;28;89299;-47
2023/09/18 02:19:08;;;;;;;;;;;20.00;61.50;;;;;;5032795;28;88188;-54
2023/09/18 02:21:34;;;;;;;;;;;20.00;61.50;;;;;;5034544;28;87158;-52
2023/09/18 02:23:59;;;;;;;;;;;20.00;61.60;;;;;;5034942;28;87581;-53
2023/09/18 02:26:25;;;;;;;;;;;19.90;61.40;;;;;;5032916;28;88683;-54
2023/09/18 02:28:54;;;;;;;;;;;19.90;61.40;;;;;;5033307;28;87536;-56
2023/09/18 02:31:20;;;;;;;;;;;20.00;61.60;;;;;;5031725;28;88375;-48
2023/09/18 02:33:46;;;;;;;;;;;20.00;61.50;;;;;;5035543;28;88507;-53
2023/09/18 02:36:12;;;;;;;;;;;19.90;61.40;;;;;;5034052;27;89114;-49
2023/09/18 02:38:37;;;;;;;;;;;20.00;61.50;;;;;;5033668;28;87319;-51
2023/09/18 02:41:03;;;;;;;;;;;19.90;61.30;;;;;;5033079;28;86994;-50
2023/09/18 02:43:29;;;;;;;;;;;20.00;61.40;;;;;;5030801;28;87596;-53
2023/09/18 02:45:54;;;;;;;;;;;20.00;61.30;;;;;;5032700;28;88149;-54
2023/09/18 02:48:20;;;;;;;;;;;19.90;61.40;;;;;;5032448;28;86368;-51
2023/09/18 02:50:45;;;;;;;;;;;19.90;61.40;;;;;;5033402;28;90695;-47
2023/09/18 02:53:19;;;;;;;;;;;19.90;61.30;;;;;;5032635;28;88592;-51
2023/09/18 02:55:45;;;;;;;;;;;19.90;61.30;;;;;;5034869;28;88095;-50
2023/09/18 02:58:10;;;;;;;;;;;19.90;61.90;;;;;;5032996;28;88374;-52
2023/09/18 03:00:45;;;;;;;;;;;19.90;61.40;;;;;;5031813;28;87210;-49
2023/09/18 03:03:11;;;;;;;;;;;19.80;61.40;;;;;;5032987;28;87706;-49
2023/09/18 03:05:37;;;;;;;;;;;19.80;61.40;;;;;;5032380;28;88286;-52
2023/09/18 03:08:02;;;;;;;;;;;19.80;61.30;;;;;;5034766;28;87258;-52
2023/09/18 03:10:28;;;;;;;;;;;19.80;61.30;;;;;;5031738;27;87677;-51
2023/09/18 03:12:53;;;;;;;;;;;19.70;61.30;;;;;;5034521;28;87557;-50
2023/09/18 03:15:19;;;;;;;;;;;19.70;61.40;;;;;;5034105;28;87084;-53
2023/09/18 03:17:44;;;;;;;;;;;19.80;61.40;;;;;;5033105;28;89874;-54
2023/09/18 03:20:10;;;;;;;;;;;19.70;61.30;;;;;;5032392;28;88009;-50
2023/09/18 03:22:36;;;;;;;;;;;19.70;61.30;;;;;;5032924;28;88369;-47
2023/09/18 03:25:02;;;;;;;;;;;19.70;61.30;;;;;;5033773;28;87966;-53
2023/09/18 03:27:28;;;;;;;;;;;19.70;61.30;;;;;;5031542;28;87042;-51
2023/09/18 03:29:54;;;;;;;;;;;19.70;61.20;;;;;;5029062;28;88039;-54
2023/09/18 03:32:20;;;;;;;;;;;19.70;61.30;;;;;;5032777;28;87320;-54
2023/09/18 03:34:45;;;;;;;;;;;19.70;61.40;;;;;;5033375;28;87708;-53
2023/09/18 03:37:11;;;;;;;;;;;19.70;61.20;;;;;;5035840;28;87583;-53
2023/09/18 03:39:36;;;;;;;;;;;19.70;61.20;;;;;;5032643;28;87078;-53
2023/09/18 03:42:03;;;;;;;;;;;19.70;61.20;;;;;;5033693;28;88922;-53
2023/09/18 03:44:28;;;;;;;;;;;19.70;61.10;;;;;;5030045;27;90558;-55
2023/09/18 03:46:54;;;;;;;;;;;19.70;61.20;;;;;;5032109;28;87291;-50
2023/09/18 03:49:20;;;;;;;;;;;19.60;61.10;;;;;;5034120;28;87470;-49
2023/09/18 03:51:45;;;;;;;;;;;19.60;61.20;;;;;;5031223;28;90293;-49
2023/09/18 03:54:11;;;;;;;;;;;19.60;61.20;;;;;;5032925;28;87385;-50
2023/09/18 03:56:36;;;;;;;;;;;19.60;61.30;;;;;;5033004;28;87986;-49
2023/09/18 03:59:02;;;;;;;;;;;19.60;61.30;;;;;;5034259;28;88043;-50
2023/09/18 04:01:28;;;;;;;;;;;19.60;61.20;;;;;;5031096;28;87400;-51
2023/09/18 04:03:54;;;;;;;;;;;19.60;61.10;;;;;;5032092;28;89223;-49
2023/09/18 04:06:20;;;;;;;;;;;19.60;61.10;;;;;;5033813;28;87089;-53
2023/09/18 04:08:46;;;;;;;;;;;19.60;61.10;;;;;;5031133;28;88028;-50
2023/09/18 04:11:12;;;;;;;;;;;19.50;61.20;;;;;;5032325;28;88323;-49
2023/09/18 04:13:37;;;;;;;;;;;19.50;61.20;;;;;;5027294;28;87742;-52
2023/09/18 04:16:03;;;;;;;;;;;19.50;61.70;;;;;;5028274;27;88823;-55
2023/09/18 04:18:29;;;;;;;;;;;19.50;61.20;;;;;;5030241;28;88052;-53
2023/09/18 04:20:54;;;;;;;;;;;19.50;61.30;;;;;;5033412;28;87183;-51
2023/09/18 04:23:21;;;;;;;;;;;19.50;61.20;;;;;;5031844;28;88905;-50
2023/09/18 04:25:47;;;;;;;;;;;19.50;60.70;;;;;;5028242;28;86422;-49
2023/09/18 04:28:13;;;;;;;;;;;19.50;61.20;;;;;;5032680;27;88104;-51
2023/09/18 04:30:39;;;;;;;;;;;19.50;61.20;;;;;;5028249;28;88830;-50
2023/09/18 04:33:04;;;;;;;;;;;19.50;61.20;;;;;;5032317;28;88046;-54
2023/09/18 04:35:31;;;;;;;;;;;19.50;61.30;;;;;;5025148;28;88003;-50
2023/09/18 04:37:58;;;;;;;;;;;19.40;61.20;;;;;;5029916;28;89745;-52
2023/09/18 04:40:24;;;;;;;;;;;19.40;61.20;;;;;;5033771;28;87112;-52
2023/09/18 04:42:50;;;;;;;;;;;19.40;61.20;;;;;;5029395;28;88880;-49
2023/09/18 04:45:16;;;;;;;;;;;19.40;61.30;;;;;;5027893;28;87172;-53
2023/09/18 04:47:41;;;;;;;;;;;19.40;61.20;;;;;;5031348;27;87904;-50
2023/09/18 04:50:09;;;;;;;;;;;19.40;61.20;;;;;;5030877;28;88442;-53
2023/09/18 04:52:35;;;;;;;;;;;19.40;60.60;;;;;;5027286;28;87255;-53
2023/09/18 04:55:01;;;;;;;;;;;19.40;61.30;;;;;;5027763;28;87516;-54
2023/09/18 04:57:26;;;;;;;;;;;19.40;61.30;;;;;;5031564;28;89234;-53
2023/09/18 04:59:52;;;;;;;;;;;19.40;61.40;;;;;;5029587;28;88831;-52
2023/09/18 05:02:17;;;;;;;;;;;19.40;61.50;;;;;;5027247;28;87780;-54
2023/09/18 05:04:43;;;;;;;;;;;19.30;61.40;;;;;;5032645;28;87974;-54
2023/09/18 05:07:08;;;;;;;;;;;19.30;61.60;;;;;;5032051;28;88326;-49
2023/09/18 05:09:34;;;;;;;;;;;19.30;61.50;;;;;;5027017;28;88728;-51
2023/09/18 05:12:00;;;;;;;;;;;19.30;61.50;;;;;;5025620;28;87164;-48
2023/09/18 05:14:26;;;;;;;;;;;19.30;61.60;;;;;;5031805;28;87755;-51
2023/09/18 05:16:51;;;;;;;;;;;19.30;61.60;;;;;;5025555;28;89872;-49
2023/09/18 05:19:17;;;;;;;;;;;19.30;61.50;;;;;;5026781;28;88282;-55
2023/09/18 05:21:43;;;;;;;;;;;19.30;61.60;;;;;;5028117;27;88193;-54
2023/09/18 05:24:08;;;;;;;;;;;19.20;61.70;;;;;;5035531;28;88511;-53
2023/09/18 05:26:34;;;;;;;;;;;19.20;61.60;;;;;;5035996;28;89091;-53
2023/09/18 05:28:59;;;;;;;;;;;19.20;61.60;;;;;;5030049;28;89427;-55
2023/09/18 05:31:25;;;;;;;;;;;19.20;61.60;;;;;;5031417;28;87147;-49
2023/09/18 05:33:50;;;;;;;;;;;19.20;61.60;;;;;;5034514;28;87770;-53
2023/09/18 05:36:16;;;;;;;;;;;19.20;61.70;;;;;;5034537;28;88707;-56
2023/09/18 05:38:43;;;;;;;;;;;19.20;61.80;;;;;;5030776;28;86369;-52
2023/09/18 05:41:09;;;;;;;;;;;19.30;61.80;;;;;;5034999;28;87332;-51
2023/09/18 05:43:35;;;;;;;;;;;19.20;61.70;;;;;;5034721;28;88669;-51
2023/09/18 05:46:01;;;;;;;;;;;19.20;61.60;;;;;;5035274;28;88052;-49
2023/09/18 05:48:26;;;;;;;;;;;19.20;61.70;;;;;;5027851;28;88556;-52
2023/09/18 05:50:53;;;;;;;;;;;19.20;61.70;;;;;;5034680;28;87156;-48
2023/09/18 05:53:19;;;;;;;;;;;19.20;61.90;;;;;;5033070;28;87587;-54
2023/09/18 05:55:45;;;;;;;;;;;19.20;61.80;;;;;;5033398;28;88154;-53
2023/09/18 05:58:10;;;;;;;;;;;19.20;61.80;;;;;;5034431;28;88148;-49
2023/09/18 06:00:36;;;;;;;;;;;19.20;61.70;;;;;;5031631;28;87572;-53
2023/09/18 06:03:02;;;;;;;;;;;19.20;61.80;;;;;;5033261;28;88113;-55
2023/09/18 06:05:30;;;;;;;;;;;19.20;61.70;;;;;;5032350;28;87824;-50
2023/09/18 06:07:56;;;;;;;;;;;19.20;61.70;;;;;;5033399;28;89311;-48
2023/09/18 06:10:22;;;;;;;;;;;19.10;61.60;;;;;;5033100;28;88037;-49
2023/09/18 06:12:47;;;;;;;;;;;19.20;61.70;;;;;;5036067;28;90036;-53
2023/09/18 06:15:13;;;;;;;;;;;19.20;61.60;;;;;;5031281;28;88953;-53
2023/09/18 06:17:39;;;;;;;;;;;19.10;61.60;;;;;;5032203;28;87120;-54
2023/09/18 06:20:05;;;;;;;;;;;19.10;61.70;;;;;;5035501;28;87664;-50
2023/09/18 06:22:31;;;;;;;;;;;19.10;61.70;;;;;;5027746;28;89653;-54
2023/09/18 06:24:56;;;;;;;;;;;19.10;61.70;;;;;;5031525;28;87767;-50
2023/09/18 06:27:22;;;;;;;;;;;19.10;61.60;;;;;;5032497;28;86769;-46
2023/09/18 06:29:48;;;;;;;;;;;19.10;61.60;;;;;;5038293;28;87433;-52
2023/09/18 06:32:13;;;;;;;;;;;19.10;61.70;;;;;;5028130;28;88111;-48
2023/09/18 06:34:42;;;;;;;;;;;19.10;61.60;;;;;;5029955;28;89764;-47
2023/09/18 06:37:10;;;;;;;;;;;19.10;61.80;;;;;;5030955;28;87250;-50
2023/09/18 06:39:37;;;;;;;;;;;19.10;61.70;;;;;;5034903;28;88863;-52
2023/09/18 06:42:02;;;;;;;;;;;19.10;61.60;;;;;;5033256;28;89990;-50
2023/09/18 06:44:28;;;;;;;;;;;19.10;61.70;;;;;;5028541;28;87070;-55
2023/09/18 06:46:53;;;;;;;;;;;19.10;61.70;;;;;;5032021;28;87850;-49
2023/09/18 06:49:19;;;;;;;;;;;19.10;61.70;;;;;;5028716;28;88412;-56
2023/09/18 06:51:44;;;;;;;;;;;19.10;61.90;;;;;;5032302;28;86509;-52
2023/09/18 06:54:10;;;;;;;;;;;19.10;61.90;;;;;;5030266;28;88373;-47
2023/09/18 06:56:35;;;;;;;;;;;19.10;61.90;;;;;;5033467;28;87107;-52
2023/09/18 06:59:01;;;;;;;;;;;19.10;62.00;;;;;;5028360;28;89173;-51
2023/09/18 07:01:28;;;;;;;;;;;19.10;61.90;;;;;;5029036;28;87781;-53
2023/09/18 07:03:53;;;;;;;;;;;19.10;61.80;;;;;;5030944;28;87371;-52
2023/09/18 07:06:20;;;;;;;;;;;19.00;62.00;;;;;;5034903;28;87640;-52
2023/09/18 07:08:46;;;;;;;;;;;19.00;62.20;;;;;;5033962;28;88259;-50
2023/09/18 07:11:11;;;;;;;;;;;19.00;62.00;;;;;;5029880;28;87857;-48
2023/09/18 07:13:37;;;;;;;;;;;19.00;62.00;;;;;;5035897;28;88697;-52
2023/09/18 07:16:03;;;;;;;;;;;19.10;61.90;;;;;;5032894;28;87170;-49
2023/09/18 07:18:28;;;;;;;;;;;19.10;62.10;;;;;;5030715;28;87103;-55
2023/09/18 07:20:54;;;;;;;;;;;19.10;61.90;;;;;;5028543;28;88169;-55
2023/09/18 07:23:20;;;;;;;;;;;19.10;62.10;;;;;;5033945;28;88040;-55
2023/09/18 07:25:47;;;;;;;;;;;19.10;62.00;;;;;;5031800;28;88973;-50
2023/09/18 07:28:17;;;;;;;;;;;19.10;61.90;;;;;;5027195;28;89399;-51
2023/09/18 07:30:43;;;;;;;;;;;19.10;61.90;;;;;;5030601;28;87488;-53
2023/09/18 07:33:09;;;;;;;;;;;19.10;62.00;;;;;;5032589;28;89007;-54
2023/09/18 07:35:35;;;;;;;;;;;19.10;61.90;;;;;;5029199;28;87193;-52
2023/09/18 07:38:00;;;;;;;;;;;19.10;61.90;;;;;;5030500;28;88924;-48
2023/09/18 07:40:26;;;;;;;;;;;19.10;61.90;;;;;;5030779;28;87398;-49
2023/09/18 07:43:10;;;;;;;;;;;19.10;61.90;;;;;;5032581;28;87990;-52
2023/09/18 07:45:37;;;;;;;;;;;19.10;61.90;;;;;;5029273;28;87865;-56
2023/09/18 07:48:03;;;;;;;;;;;19.10;61.80;;;;;;5028621;28;88140;-46
2023/09/18 07:50:31;;;;;;;;;;;19.10;62.00;;;;;;5033216;28;86937;-48
2023/09/18 07:52:56;;;;;;;;;;;19.10;61.80;;;;;;5031582;27;88531;-52
2023/09/18 07:55:22;;;;;;;;;;;19.10;61.90;;;;;;5033585;28;88194;-55
2023/09/18 07:57:49;;;;;;;;;;;19.10;61.80;;;;;;5030958;28;87620;-54
2023/09/18 08:00:15;;;;;;;;;;;19.10;61.80;;;;;;5031140;28;87314;-48
2023/09/18 08:02:41;;;;;;;;;;;19.10;61.80;;;;;;5030058;28;87171;-49
2023/09/18 08:05:08;;;;;;;;;;;19.10;61.80;;;;;;5031478;28;89122;-55
2023/09/18 08:07:35;;;;;;;;;;;19.10;61.80;;;;;;5028129;28;87962;-49
2023/09/18 08:10:08;;;;;;;;;;;19.10;61.80;;;;;;5033999;28;87147;-53
2023/09/18 08:12:34;;;;;;;;;;;19.10;61.80;;;;;;5027287;28;89611;-52
2023/09/18 08:14:59;;;;;;;;;;;19.10;61.80;;;;;;5028518;28;88332;-51
2023/09/18 08:17:25;;;;;;;;;;;19.10;61.70;;;;;;5030587;28;87452;-49
2023/09/18 08:19:54;;;;;;;;;;;19.00;61.50;;;;;;5032929;28;89212;-54
2023/09/18 08:22:20;;;;;;;;;;;19.00;61.60;;;;;;5025539;28;87183;-51
2023/09/18 08:24:47;;;;;;;;;;;19.00;61.60;;;;;;5026118;28;88233;-55
2023/09/18 08:27:13;;;;;;;;;;;19.00;61.90;;;;;;5029537;28;88100;-50
2023/09/18 08:29:39;;;;;;;;;;;19.10;61.90;;;;;;5032251;28;86422;-54
2023/09/18 08:32:04;;;;;;;;;;;19.10;62.00;;;;;;5031537;28;87746;-47
2023/09/18 08:34:30;;;;;;;;;;;19.10;61.80;;;;;;5032678;28;88529;-51
2023/09/18 08:36:55;;;;;;;;;;;19.10;61.80;;;;;;5029280;28;88226;-52
2023/09/18 08:39:21;;;;;;;;;;;19.10;61.80;;;;;;5034381;28;88548;-55
2023/09/18 08:41:48;;;;;;;;;;;19.10;61.80;;;;;;5030893;28;88842;-53
2023/09/18 08:44:14;;;;;;;;;;;19.00;61.80;;;;;;5027069;28;87889;-53
2023/09/18 08:46:40;;;;;;;;;;;19.10;61.90;;;;;;5031600;28;88408;-53
2023/09/18 08:49:07;;;;;;;;;;;19.00;61.90;;;;;;5029402;28;87326;-48
2023/09/18 08:51:33;;;;;;;;;;;19.00;62.00;;;;;;5028954;27;88023;-51
2023/09/18 08:53:58;;;;;;;;;;;19.00;61.90;;;;;;5027875;28;88002;-49
2023/09/18 08:56:24;;;;;;;;;;;19.10;62.20;;;;;;5033670;28;87202;-51
2023/09/18 08:58:50;;;;;;;;;;;19.10;62.00;;;;;;5025859;28;87760;-51
2023/09/18 09:01:15;;;;;;;;;;;19.00;61.80;;;;;;5031495;28;90482;-52
2023/09/18 09:03:42;;;;;;;;;;;19.10;62.00;;;;;;5030565;28;88712;-53
2023/09/18 09:06:09;;;;;;;;;;;19.10;62.00;;;;;;5035481;28;89918;-51
2023/09/18 09:08:34;;;;;;;;;;;19.10;62.10;;;;;;5031627;28;87097;-56
2023/09/18 09:11:00;;;;;;;;;;;19.00;62.10;;;;;;5031894;28;87571;-48
2023/09/18 09:13:26;;;;;;;;;;;19.00;62.80;;;;;;5033333;28;88354;-50
2023/09/18 09:15:58;;;;;;;;;;;19.10;62.10;;;;;;5037529;28;87161;-54
2023/09/18 09:18:24;;;;;;;;;;;19.10;62.20;;;;;;5031838;28;88599;-49
2023/09/18 09:21:00;;;;;;;;;;;19.10;62.10;;;;;;5034763;28;88100;-51
2023/09/18 09:23:26;;;;;;;;;;;19.10;62.10;;;;;;5036902;28;87023;-50
2023/09/18 09:25:52;;;;;;;;;;;19.00;62.20;;;;;;5033566;28;89291;-53
2023/09/18 09:28:29;;;;;;;;;;;19.10;62.10;;;;;;5033306;28;87234;-55
2023/09/18 09:31:00;;;;;;;;;;;19.00;62.20;;;;;;5032055;28;87612;-51
2023/09/18 09:33:25;;;;;;;;;;;19.10;62.40;;;;;;5034173;28;87610;-50
2023/09/18 09:35:51;;;;;;;;;;;19.10;62.40;;;;;;5031531;28;87056;-52
2023/09/18 09:38:19;;;;;;;;;;;19.10;62.60;;;;;;5033698;28;88000;-54
2023/09/18 09:40:45;;;;;;;;;;;19.10;62.60;;;;;;5032100;28;88156;-53
2023/09/18 09:43:13;;;;;;;;;;;19.10;62.80;;;;;;5038015;28;86385;-49
2023/09/18 09:45:39;;;;;;;;;;;19.10;62.70;;;;;;5031538;28;88942;-52
2023/09/18 09:48:06;;;;;;;;;;;19.10;62.50;;;;;;5030184;28;87398;-51
2023/09/18 09:50:32;;;;;;;;;;;19.10;62.70;;;;;;5034485;28;88849;-55
2023/09/18 09:52:57;;;;;;;;;;;19.10;62.80;;;;;;5030745;28;88911;-50
2023/09/18 09:55:24;;;;;;;;;;;19.20;63.10;;;;;;5029585;28;87122;-51
2023/09/18 09:57:57;;;;;;;;;;;19.10;63.00;;;;;;5032173;28;87706;-47
2023/09/18 10:00:33;;;;;;;;;;;19.10;62.80;;;;;;5033771;28;87209;-51
2023/09/18 10:03:00;;;;;;;;;;;19.20;62.90;;;;;;5031373;28;88013;-51
2023/09/18 10:05:33;;;;;;;;;;;19.20;62.90;;;;;;5034771;28;88799;-53
2023/09/18 10:08:00;;;;;;;;;;;19.20;62.80;;;;;;5034150;28;86180;-53
2023/09/18 10:10:31;;;;;;;;;;;19.20;62.70;;;;;;5035553;28;88357;-51
2023/09/18 10:13:00;;;;;;;;;;;19.20;62.80;;;;;;5028796;27;89704;-49
2023/09/18 10:15:27;;;;;;;;;;;19.20;63.00;;;;;;5030647;28;88203;-51
2023/09/18 10:17:54;;;;;;;;;;;19.20;62.90;;;;;;5035857;27;88504;-53
2023/09/18 10:20:26;;;;;;;;;;;19.30;62.80;;;;;;5029558;28;89495;-53
2023/09/18 10:22:56;;;;;;;;;;;19.20;63.30;;;;;;5031825;28;87126;-55
2023/09/18 10:25:28;;;;;;;;;;;19.30;63.50;;;;;;5030983;28;86977;-48
2023/09/18 10:27:58;;;;;;;;;;;19.30;63.30;;;;;;5036012;28;88183;-53
2023/09/18 10:30:25;;;;;;;;;;;19.30;62.90;;;;;;5033646;27;89221;-48
2023/09/18 10:32:51;;;;;;;;;;;19.30;63.30;;;;;;5030301;28;88828;-47
2023/09/18 10:35:17;;;;;;;;;;;19.30;63.20;;;;;;5032215;28;87125;-48
2023/09/18 10:37:43;;;;;;;;;;;19.30;63.30;;;;;;5032498;28;88760;-51
2023/09/18 10:40:09;;;;;;;;;;;19.30;63.30;;;;;;5030286;28;89420;-54
2023/09/18 10:42:36;;;;;;;;;;;19.30;63.20;;;;;;5035179;28;87254;-50
2023/09/18 10:45:04;;;;;;;;;;;19.30;63.50;;;;;;5032208;27;88332;-53
2023/09/18 10:47:30;;;;;;;;;;;19.30;63.30;;;;;;5035734;28;88637;-54
2023/09/18 10:49:56;;;;;;;;;;;19.30;63.20;;;;;;5031059;28;87196;-49
2023/09/18 10:52:21;;;;;;;;;;;19.30;63.60;;;;;;5032898;28;87978;-54
2023/09/18 10:54:47;;;;;;;;;;;19.30;63.50;;;;;;5033156;28;87198;-50
2023/09/18 10:57:13;;;;;;;;;;;19.30;63.30;;;;;;5034704;28;87663;-48
2023/09/18 10:59:45;;;;;;;;;;;19.30;63.30;;;;;;5026000;28;89146;-53
2023/09/18 11:02:13;;;;;;;;;;;19.30;63.70;;;;;;5030219;28;88094;-53
2023/09/18 11:04:41;;;;;;;;;;;19.30;63.70;;;;;;5030902;28;88782;-56
2023/09/18 11:07:06;;;;;;;;;;;19.20;63.70;;;;;;5027687;28;88665;-54
2023/09/18 11:09:40;;;;;;;;;;;19.30;63.50;;;;;;5030974;28;88310;-50
2023/09/18 11:12:06;;;;;;;;;;;19.30;63.70;;;;;;5035570;28;87583;-48
2023/09/18 11:14:41;;;;;;;;;;;19.30;63.80;;;;;;5032356;28;87059;-50
2023/09/18 11:17:27;;;;;;;;;;;19.30;63.70;;;;;;5032255;28;89341;-54
2023/09/18 11:20:01;;;;;;;;;;;19.30;63.70;;;;;;5031887;28;88325;-55
2023/09/18 11:22:26;;;;;;;;;;;19.40;63.70;;;;;;5032527;28;86323;-51
2023/09/18 11:24:52;;;;;;;;;;;19.40;63.60;;;;;;5031115;28;88111;-54
2023/09/18 11:27:23;;;;;;;;;;;19.40;63.70;;;;;;5031339;28;89359;-48
2023/09/18 11:29:52;;;;;;;;;;;19.40;63.80;;;;;;5033730;28;88099;-50
2023/09/18 11:32:37;;;;;;;;;;;19.40;63.70;;;;;;5033738;27;90201;-54
2023/09/18 11:35:07;;;;;;;;;;;19.40;63.80;;;;;;5031915;28;88979;-47
2023/09/18 11:37:32;;;;;;;;;;;19.40;63.90;;;;;;5028545;28;87578;-49
2023/09/18 11:39:59;;;;;;;;;;;19.40;63.60;;;;;;5033373;28;88111;-55
2023/09/18 11:42:28;;;;;;;;;;;19.40;63.60;;;;;;5034606;28;87159;-49
2023/09/18 11:44:54;;;;;;;;;;;19.40;63.70;;;;;;5032183;28;89268;-51
2023/09/18 11:47:27;;;;;;;;;;;19.40;63.70;;;;;;5025464;28;87570;-46
2023/09/18 11:49:54;;;;;;;;;;;19.40;63.60;;;;;;5030893;28;87094;-53
2023/09/18 11:52:22;;;;;;;;;;;19.40;63.60;;;;;;5032876;27;87667;-54
2023/09/18 11:54:48;;;;;;;;;;;19.40;63.70;;;;;;5031206;28;89750;-50
2023/09/18 11:57:14;;;;;;;;;;;19.40;63.70;;;;;;5030154;28;88524;-51
2023/09/18 11:59:43;;;;;;;;;;;19.40;63.60;;;;;;5034090;28;88048;-54
2023/09/18 12:02:10;;;;;;;;;;;19.40;63.50;;;;;;5028437;28;88324;-49
2023/09/18 12:04:35;;;;;;;;;;;19.50;63.50;;;;;;5026605;28;89434;-49
2023/09/18 12:07:03;;;;;;;;;;;19.50;63.50;;;;;;5031952;28;89324;-51
2023/09/18 12:09:30;;;;;;;;;;;19.50;63.50;;;;;;5031351;28;87210;-54
2023/09/18 12:11:57;;;;;;;;;;;19.50;63.30;;;;;;5029413;28;87571;-52
2023/09/18 12:14:23;;;;;;;;;;;19.50;63.30;;;;;;5023808;28;88128;-50
2023/09/18 12:16:50;;;;;;;;;;;19.50;63.30;;;;;;5036406;28;87146;-47
2023/09/18 12:19:19;;;;;;;;;;;19.60;63.30;;;;;;5028631;28;89523;-53
2023/09/18 12:21:47;;;;;;;;;;;19.50;63.30;;;;;;5026107;28;87207;-52
2023/09/18 12:24:14;;;;;;;;;;;19.60;63.30;;;;;;5030181;28;87091;-51
2023/09/18 12:26:39;;;;;;;;;;;19.60;63.30;;;;;;5030205;28;88550;-50
2023/09/18 12:29:05;;;;;;;;;;;19.60;63.30;;;;;;5029504;28;87204;-49
2023/09/18 12:31:31;;;;;;;;;;;19.60;63.10;;;;;;5030365;28;88457;-52
2023/09/18 12:33:57;;;;;;;;;;;19.60;63.10;;;;;;5029893;28;88483;-52
2023/09/18 12:36:25;;;;;;;;;;;19.60;63.10;;;;;;5028731;28;86459;-50
2023/09/18 12:39:00;;;;;;;;;;;19.70;63.00;;;;;;5028259;28;87267;-53
2023/09/18 12:41:26;;;;;;;;;;;19.70;62.80;;;;;;5030386;28;87100;-55
2023/09/18 12:43:52;;;;;;;;;;;19.70;63.00;;;;;;5029313;28;88058;-51
2023/09/18 12:46:19;;;;;;;;;;;19.80;62.90;;;;;;5033096;28;87454;-53
2023/09/18 12:48:47;;;;;;;;;;;19.80;62.80;;;;;;5026817;28;87219;-51
2023/09/18 12:51:14;;;;;;;;;;;19.80;62.80;;;;;;5027478;28;87874;-53
2023/09/18 12:53:40;;;;;;;;;;;19.80;62.80;;;;;;5032309;28;90034;-51
2023/09/18 12:56:09;;;;;;;;;;;19.80;62.80;;;;;;5028884;28;87621;-48
2023/09/18 12:58:35;;;;;;;;;;;19.80;62.80;;;;;;5031016;28;88214;-51
2023/09/18 13:01:07;;;;;;;;;;;19.80;62.80;;;;;;5028831;28;89022;-50
2023/09/18 13:03:41;;;;;;;;;;;19.90;62.90;;;;;;5030598;28;88426;-53
2023/09/18 13:06:08;;;;;;;;;;;19.90;62.80;;;;;;5030484;28;89225;-48
2023/09/18 13:08:33;;;;;;;;;;;19.90;62.70;;;;;;5026658;28;88096;-53
2023/09/18 13:11:02;;;;;;;;;;;19.90;63.10;;;;;;5029121;28;88529;-55
2023/09/18 13:13:29;;;;;;;;;;;20.00;64.80;;;;;;5030502;28;88361;-51
2023/09/18 13:15:59;;;;;;;;;;;20.00;63.60;;;;;;5028944;28;87853;-55
2023/09/18 13:18:25;;;;;;;;;;;20.20;62.80;;;;;;5027133;27;87658;-50
2023/09/18 13:20:51;;;;;;;;;;;20.20;62.80;;;;;;5027475;28;87940;-53
2023/09/18 13:23:17;;;;;;;;;;;20.40;62.20;;;;;;5032656;28;87167;-52
2023/09/18 13:25:44;;;;;;;;;;;20.40;62.50;;;;;;5024719;28;88082;-52
2023/09/18 13:28:10;;;;;;;;;;;20.40;62.40;;;;;;5033578;28;87126;-47
2023/09/18 13:30:39;;;;;;;;;;;20.50;62.90;;;;;;5040149;28;89492;-49
2023/09/18 13:33:06;;;;;;;;;;;20.40;62.60;;;;;;5035750;28;88285;-52
2023/09/18 13:35:32;;;;;;;;;;;20.40;62.50;;;;;;5034025;28;89193;-47
2023/09/18 13:37:58;;;;;;;;;;;20.40;62.90;;;;;;5038539;28;87470;-51
2023/09/18 13:40:24;;;;;;;;;;;20.40;62.90;;;;;;5040267;28;87421;-54
2023/09/18 13:42:49;;;;;;;;;;;20.40;62.70;;;;;;5036410;28;87606;-44
2023/09/18 13:45:17;;;;;;;;;;;20.50;62.50;;;;;;5030188;28;87607;-51
2023/09/18 13:47:43;;;;;;;;;;;20.60;62.60;;;;;;5042122;28;87409;-54
2023/09/18 13:50:09;;;;;;;;;;;20.60;62.10;;;;;;5042814;28;87702;-57
2023/09/18 13:52:35;;;;;;;;;;;20.60;62.50;;;;;;5035463;28;88197;-47
2023/09/18 13:55:05;;;;;;;;;;;20.70;62.20;;;;;;5038470;28;87120;-47
2023/09/18 13:57:33;;;;;;;;;;;20.60;62.20;;;;;;5039644;28;88909;-47
2023/09/18 13:59:59;;;;;;;;;;;20.70;62.80;;;;;;5030833;28;87825;-48
2023/09/18 14:02:27;;;;;;;;;;;20.70;62.60;;;;;;5028792;27;87726;-49
2023/09/18 14:04:55;;;;;;;;;;;20.70;62.60;;;;;;5033761;28;87880;-50
2023/09/18 14:07:21;;;;;;;;;;;20.70;62.50;;;;;;5031943;28;87148;-50
2023/09/18 14:09:48;;;;;;;;;;;20.70;63.00;;;;;;5035073;28;87652;-46
2023/09/18 14:12:13;;;;;;;;;;;20.80;62.60;;;;;;5028016;28;88869;-48